sensor_id;sensor_type;location;lat;lon;timestamp;P1;durP1;ratioP1;P2;durP2;ratioP2
47433;SDS011;33184;48.774;8.918;2023-02-28T00:02:31;4.27;;;1.27;;
47433;SDS011;33184;48.774;8.918;2023-02-28T00:07:51;2.53;;;1.13;;
47433;SDS011;33184;48.774;8.918;2023-02-28T00:13:12;2.37;;;1.37;;
47433;SDS011;33184;48.774;8.918;2023-02-28T00:18:33;1.50;;;1.17;;
47433;SDS011;33184;48.774;8.918;2023-02-28T00:23:54;2.63;;;1.30;;
47433;SDS011;33184;48.774;8.918;2023-02-28T00:29:14;3.83;;;1.30;;
47433;SDS011;33184;48.774;8.918;2023-02-28T00:34:38;2.40;;;1.43;;
47433;SDS011;33184;48.774;8.918;2023-02-28T00:39:59;6.00;;;1.20;;
47433;SDS011;33184;48.774;8.918;2023-02-28T00:45:22;2.40;;;1.43;;
47433;SDS011;33184;48.774;8.918;2023-02-28T00:50:42;3.33;;;1.20;;
47433;SDS011;33184;48.774;8.918;2023-02-28T00:56:03;2.53;;;1.60;;
47433;SDS011;33184;48.774;8.918;2023-02-28T01:01:25;2.33;;;1.30;;
47433;SDS011;33184;48.774;8.918;2023-02-28T01:06:45;2.87;;;1.30;;
47433;SDS011;33184;48.774;8.918;2023-02-28T01:12:07;2.00;;;1.53;;
47433;SDS011;33184;48.774;8.918;2023-02-28T01:17:28;3.20;;;1.13;;
47433;SDS011;33184;48.774;8.918;2023-02-28T01:22:49;3.13;;;1.60;;
47433;SDS011;33184;48.774;8.918;2023-02-28T01:28:09;3.97;;;2.60;;
47433;SDS011;33184;48.774;8.918;2023-02-28T01:33:30;2.00;;;1.30;;
47433;SDS011;33184;48.774;8.918;2023-02-28T01:38:51;2.90;;;1.80;;
47433;SDS011;33184;48.774;8.918;2023-02-28T01:50:14;4.20;;;2.13;;
47433;SDS011;33184;48.774;8.918;2023-02-28T01:55:38;3.23;;;2.00;;
47433;SDS011;33184;48.774;8.918;2023-02-28T02:01:01;3.80;;;2.00;;
47433;SDS011;33184;48.774;8.918;2023-02-28T02:06:44;3.07;;;2.13;;
47433;SDS011;33184;48.774;8.918;2023-02-28T02:12:10;3.50;;;2.43;;
47433;SDS011;33184;48.774;8.918;2023-02-28T02:17:44;3.50;;;2.37;;
47433;SDS011;33184;48.774;8.918;2023-02-28T02:23:23;3.90;;;2.00;;
47433;SDS011;33184;48.774;8.918;2023-02-28T02:29:08;2.70;;;1.90;;
47433;SDS011;33184;48.774;8.918;2023-02-28T02:40:36;5.23;;;2.57;;
47433;SDS011;33184;48.774;8.918;2023-02-28T02:46:20;3.87;;;1.70;;
47433;SDS011;33184;48.774;8.918;2023-02-28T02:51:49;1.90;;;1.63;;
47433;SDS011;33184;48.774;8.918;2023-02-28T02:57:15;3.67;;;2.13;;
47433;SDS011;33184;48.774;8.918;2023-02-28T03:02:42;2.97;;;2.00;;
47433;SDS011;33184;48.774;8.918;2023-02-28T03:08:05;4.03;;;2.00;;
47433;SDS011;33184;48.774;8.918;2023-02-28T03:25:27;3.97;;;2.27;;
47433;SDS011;33184;48.774;8.918;2023-02-28T03:36:47;5.90;;;2.10;;
47433;SDS011;33184;48.774;8.918;2023-02-28T03:42:14;3.10;;;2.33;;
47433;SDS011;33184;48.774;8.918;2023-02-28T03:47:43;6.63;;;2.30;;
47433;SDS011;33184;48.774;8.918;2023-02-28T03:58:42;3.07;;;2.50;;
47433;SDS011;33184;48.774;8.918;2023-02-28T04:04:09;6.27;;;3.67;;
47433;SDS011;33184;48.774;8.918;2023-02-28T04:09:31;5.30;;;3.63;;
47433;SDS011;33184;48.774;8.918;2023-02-28T04:14:52;4.20;;;2.90;;
47433;SDS011;33184;48.774;8.918;2023-02-28T04:20:13;6.10;;;3.13;;
47433;SDS011;33184;48.774;8.918;2023-02-28T04:25:34;3.13;;;2.30;;
47433;SDS011;33184;48.774;8.918;2023-02-28T04:31:04;2.67;;;2.03;;
47433;SDS011;33184;48.774;8.918;2023-02-28T04:36:25;3.97;;;2.83;;
47433;SDS011;33184;48.774;8.918;2023-02-28T04:41:46;5.90;;;3.10;;
47433;SDS011;33184;48.774;8.918;2023-02-28T04:47:07;6.73;;;3.63;;
47433;SDS011;33184;48.774;8.918;2023-02-28T04:52:27;4.50;;;3.17;;
47433;SDS011;33184;48.774;8.918;2023-02-28T04:57:48;4.13;;;2.27;;
47433;SDS011;33184;48.774;8.918;2023-02-28T05:03:08;4.17;;;3.03;;
47433;SDS011;33184;48.774;8.918;2023-02-28T05:08:29;9.60;;;4.17;;
47433;SDS011;33184;48.774;8.918;2023-02-28T05:13:50;6.10;;;4.30;;
47433;SDS011;33184;48.774;8.918;2023-02-28T05:19:11;6.33;;;3.83;;
47433;SDS011;33184;48.774;8.918;2023-02-28T05:24:32;3.97;;;3.03;;
47433;SDS011;33184;48.774;8.918;2023-02-28T05:29:52;5.33;;;3.60;;
47433;SDS011;33184;48.774;8.918;2023-02-28T05:35:13;4.20;;;3.07;;
47433;SDS011;33184;48.774;8.918;2023-02-28T05:40:33;8.57;;;3.70;;
47433;SDS011;33184;48.774;8.918;2023-02-28T05:45:54;6.87;;;3.97;;
47433;SDS011;33184;48.774;8.918;2023-02-28T05:51:15;6.17;;;4.20;;
47433;SDS011;33184;48.774;8.918;2023-02-28T05:56:37;6.10;;;4.17;;
47433;SDS011;33184;48.774;8.918;2023-02-28T06:02:03;5.83;;;3.93;;
47433;SDS011;33184;48.774;8.918;2023-02-28T06:07:24;7.47;;;4.40;;
47433;SDS011;33184;48.774;8.918;2023-02-28T06:12:45;8.03;;;3.70;;
47433;SDS011;33184;48.774;8.918;2023-02-28T06:18:05;7.80;;;4.63;;
47433;SDS011;33184;48.774;8.918;2023-02-28T06:23:26;6.83;;;4.27;;
47433;SDS011;33184;48.774;8.918;2023-02-28T06:28:47;4.63;;;3.00;;
47433;SDS011;33184;48.774;8.918;2023-02-28T06:34:08;6.23;;;4.27;;
47433;SDS011;33184;48.774;8.918;2023-02-28T06:39:29;5.17;;;3.47;;
47433;SDS011;33184;48.774;8.918;2023-02-28T06:44:50;6.67;;;4.43;;
47433;SDS011;33184;48.774;8.918;2023-02-28T06:50:12;10.47;;;5.53;;
47433;SDS011;33184;48.774;8.918;2023-02-28T06:55:33;8.27;;;4.57;;
47433;SDS011;33184;48.774;8.918;2023-02-28T07:00:53;9.00;;;5.70;;
47433;SDS011;33184;48.774;8.918;2023-02-28T07:06:14;9.67;;;6.07;;
47433;SDS011;33184;48.774;8.918;2023-02-28T07:11:38;6.67;;;3.57;;
47433;SDS011;33184;48.774;8.918;2023-02-28T07:16:58;9.70;;;5.40;;
47433;SDS011;33184;48.774;8.918;2023-02-28T07:22:19;10.93;;;5.60;;
47433;SDS011;33184;48.774;8.918;2023-02-28T07:27:39;10.63;;;6.07;;
47433;SDS011;33184;48.774;8.918;2023-02-28T07:33:00;10.77;;;6.23;;
47433;SDS011;33184;48.774;8.918;2023-02-28T07:38:20;10.00;;;4.80;;
47433;SDS011;33184;48.774;8.918;2023-02-28T07:43:41;7.83;;;5.00;;
47433;SDS011;33184;48.774;8.918;2023-02-28T07:49:01;10.87;;;5.73;;
47433;SDS011;33184;48.774;8.918;2023-02-28T07:54:23;11.43;;;4.57;;
47433;SDS011;33184;48.774;8.918;2023-02-28T07:59:43;10.13;;;5.83;;
47433;SDS011;33184;48.774;8.918;2023-02-28T08:05:04;9.60;;;5.30;;
47433;SDS011;33184;48.774;8.918;2023-02-28T08:10:26;11.90;;;5.93;;
47433;SDS011;33184;48.774;8.918;2023-02-28T08:15:47;8.23;;;4.90;;
47433;SDS011;33184;48.774;8.918;2023-02-28T08:21:08;5.50;;;4.50;;
47433;SDS011;33184;48.774;8.918;2023-02-28T08:26:29;10.50;;;5.40;;
47433;SDS011;33184;48.774;8.918;2023-02-28T08:31:49;11.30;;;5.23;;
47433;SDS011;33184;48.774;8.918;2023-02-28T08:37:10;10.90;;;5.50;;
47433;SDS011;33184;48.774;8.918;2023-02-28T08:42:31;13.40;;;6.43;;
47433;SDS011;33184;48.774;8.918;2023-02-28T08:47:54;9.33;;;6.43;;
47433;SDS011;33184;48.774;8.918;2023-02-28T08:53:15;11.20;;;6.23;;
47433;SDS011;33184;48.774;8.918;2023-02-28T08:58:36;12.00;;;6.60;;
47433;SDS011;33184;48.774;8.918;2023-02-28T09:03:57;10.53;;;6.87;;
47433;SDS011;33184;48.774;8.918;2023-02-28T09:09:18;10.97;;;6.83;;
47433;SDS011;33184;48.774;8.918;2023-02-28T09:14:38;11.70;;;7.50;;
47433;SDS011;33184;48.774;8.918;2023-02-28T09:19:59;8.67;;;6.30;;
47433;SDS011;33184;48.774;8.918;2023-02-28T09:25:21;10.13;;;7.10;;
47433;SDS011;33184;48.774;8.918;2023-02-28T09:30:42;10.07;;;5.07;;
47433;SDS011;33184;48.774;8.918;2023-02-28T09:36:04;10.80;;;6.17;;
47433;SDS011;33184;48.774;8.918;2023-02-28T09:41:25;13.40;;;7.27;;
47433;SDS011;33184;48.774;8.918;2023-02-28T09:46:54;8.07;;;4.77;;
47433;SDS011;33184;48.774;8.918;2023-02-28T09:52:21;8.50;;;6.33;;
47433;SDS011;33184;48.774;8.918;2023-02-28T09:57:48;12.73;;;7.73;;
47433;SDS011;33184;48.774;8.918;2023-02-28T10:14:15;14.50;;;10.27;;
47433;SDS011;33184;48.774;8.918;2023-02-28T10:25:20;9.67;;;7.07;;
47433;SDS011;33184;48.774;8.918;2023-02-28T10:30:49;9.90;;;7.72;;
47433;SDS011;33184;48.774;8.918;2023-02-28T10:36:13;14.63;;;7.50;;
47433;SDS011;33184;48.774;8.918;2023-02-28T10:41:36;11.68;;;7.38;;
47433;SDS011;33184;48.774;8.918;2023-02-28T10:47:02;14.27;;;5.07;;
47433;SDS011;33184;48.774;8.918;2023-02-28T10:52:37;13.43;;;8.37;;
47433;SDS011;33184;48.774;8.918;2023-02-28T10:58:00;12.87;;;8.73;;
47433;SDS011;33184;48.774;8.918;2023-02-28T11:03:32;12.37;;;7.63;;
47433;SDS011;33184;48.774;8.918;2023-02-28T11:08:55;15.63;;;9.27;;
47433;SDS011;33184;48.774;8.918;2023-02-28T11:14:22;11.87;;;7.87;;
47433;SDS011;33184;48.774;8.918;2023-02-28T11:19:50;15.63;;;8.97;;
47433;SDS011;33184;48.774;8.918;2023-02-28T11:25:19;10.68;;;7.10;;
47433;SDS011;33184;48.774;8.918;2023-02-28T11:30:43;12.37;;;8.43;;
47433;SDS011;33184;48.774;8.918;2023-02-28T11:36:08;12.73;;;7.97;;
47433;SDS011;33184;48.774;8.918;2023-02-28T11:47:12;13.03;;;8.50;;
47433;SDS011;33184;48.774;8.918;2023-02-28T11:53:14;16.37;;;8.60;;
47433;SDS011;33184;48.774;8.918;2023-02-28T11:59:01;11.27;;;7.77;;
47433;SDS011;33184;48.774;8.918;2023-02-28T12:10:17;10.50;;;7.73;;
47433;SDS011;33184;48.774;8.918;2023-02-28T12:27:07;16.97;;;8.37;;
47433;SDS011;33184;48.774;8.918;2023-02-28T12:32:33;11.70;;;7.07;;
47433;SDS011;33184;48.774;8.918;2023-02-28T12:43:41;12.20;;;8.40;;
47433;SDS011;33184;48.774;8.918;2023-02-28T12:49:17;12.00;;;7.97;;
47433;SDS011;33184;48.774;8.918;2023-02-28T13:00:13;12.80;;;8.03;;
47433;SDS011;33184;48.774;8.918;2023-02-28T13:05:50;9.38;;;7.78;;
47433;SDS011;33184;48.774;8.918;2023-02-28T13:11:29;10.30;;;8.13;;
47433;SDS011;33184;48.774;8.918;2023-02-28T13:27:46;9.23;;;7.50;;
47433;SDS011;33184;48.774;8.918;2023-02-28T13:44:18;10.43;;;9.30;;
47433;SDS011;33184;48.774;8.918;2023-02-28T13:49:44;8.77;;;7.87;;
47433;SDS011;33184;48.774;8.918;2023-02-28T14:06:29;10.17;;;7.03;;
47433;SDS011;33184;48.774;8.918;2023-02-28T14:11:52;11.30;;;7.80;;
47433;SDS011;33184;48.774;8.918;2023-02-28T14:17:14;9.60;;;8.53;;
47433;SDS011;33184;48.774;8.918;2023-02-28T14:28:25;14.87;;;5.97;;
47433;SDS011;33184;48.774;8.918;2023-02-28T14:39:33;9.37;;;7.47;;
47433;SDS011;33184;48.774;8.918;2023-02-28T14:44:54;8.57;;;6.97;;
47433;SDS011;33184;48.774;8.918;2023-02-28T14:50:19;9.00;;;7.17;;
47433;SDS011;33184;48.774;8.918;2023-02-28T14:55:43;9.13;;;6.87;;
47433;SDS011;33184;48.774;8.918;2023-02-28T15:01:05;9.10;;;6.70;;
47433;SDS011;33184;48.774;8.918;2023-02-28T15:06:25;12.20;;;8.63;;
47433;SDS011;33184;48.774;8.918;2023-02-28T15:11:47;11.40;;;7.03;;
47433;SDS011;33184;48.774;8.918;2023-02-28T15:17:13;10.23;;;7.23;;
47433;SDS011;33184;48.774;8.918;2023-02-28T15:22:43;14.17;;;7.80;;
47433;SDS011;33184;48.774;8.918;2023-02-28T15:28:09;12.47;;;7.70;;
47433;SDS011;33184;48.774;8.918;2023-02-28T15:33:34;11.17;;;7.10;;
47433;SDS011;33184;48.774;8.918;2023-02-28T15:38:54;10.87;;;7.33;;
47433;SDS011;33184;48.774;8.918;2023-02-28T15:55:16;10.83;;;7.17;;
47433;SDS011;33184;48.774;8.918;2023-02-28T16:00:39;13.07;;;6.90;;
47433;SDS011;33184;48.774;8.918;2023-02-28T16:11:54;10.33;;;7.63;;
47433;SDS011;33184;48.774;8.918;2023-02-28T16:17:20;11.83;;;6.30;;
47433;SDS011;33184;48.774;8.918;2023-02-28T16:22:53;8.53;;;6.23;;
47433;SDS011;33184;48.774;8.918;2023-02-28T16:33:45;14.40;;;7.97;;
47433;SDS011;33184;48.774;8.918;2023-02-28T16:39:06;12.37;;;7.60;;
47433;SDS011;33184;48.774;8.918;2023-02-28T16:44:28;10.17;;;7.90;;
47433;SDS011;33184;48.774;8.918;2023-02-28T16:49:51;14.47;;;7.07;;
47433;SDS011;33184;48.774;8.918;2023-02-28T16:55:12;10.60;;;8.30;;
47433;SDS011;33184;48.774;8.918;2023-02-28T17:00:33;8.63;;;7.60;;
47433;SDS011;33184;48.774;8.918;2023-02-28T17:05:53;9.93;;;7.80;;
47433;SDS011;33184;48.774;8.918;2023-02-28T17:11:14;13.20;;;8.13;;
47433;SDS011;33184;48.774;8.918;2023-02-28T17:16:37;14.27;;;9.90;;
47433;SDS011;33184;48.774;8.918;2023-02-28T17:22:08;13.43;;;8.40;;
47433;SDS011;33184;48.774;8.918;2023-02-28T17:27:29;21.07;;;13.17;;
47433;SDS011;33184;48.774;8.918;2023-02-28T17:32:49;13.47;;;10.20;;
47433;SDS011;33184;48.774;8.918;2023-02-28T17:38:17;16.57;;;11.20;;
47433;SDS011;33184;48.774;8.918;2023-02-28T17:43:39;18.57;;;10.57;;
47433;SDS011;33184;48.774;8.918;2023-02-28T17:48:59;12.73;;;9.67;;
47433;SDS011;33184;48.774;8.918;2023-02-28T17:54:20;16.63;;;11.80;;
47433;SDS011;33184;48.774;8.918;2023-02-28T17:59:41;15.57;;;11.77;;
47433;SDS011;33184;48.774;8.918;2023-02-28T18:05:02;20.77;;;11.33;;
47433;SDS011;33184;48.774;8.918;2023-02-28T18:10:24;24.17;;;12.13;;
47433;SDS011;33184;48.774;8.918;2023-02-28T18:15:45;18.37;;;12.10;;
47433;SDS011;33184;48.774;8.918;2023-02-28T18:21:07;22.37;;;14.27;;
47433;SDS011;33184;48.774;8.918;2023-02-28T18:26:28;17.97;;;11.67;;
47433;SDS011;33184;48.774;8.918;2023-02-28T18:31:49;15.00;;;10.77;;
47433;SDS011;33184;48.774;8.918;2023-02-28T18:37:10;17.60;;;10.60;;
47433;SDS011;33184;48.774;8.918;2023-02-28T18:42:32;14.70;;;10.00;;
47433;SDS011;33184;48.774;8.918;2023-02-28T18:47:52;20.63;;;12.57;;
47433;SDS011;33184;48.774;8.918;2023-02-28T18:53:13;25.37;;;13.40;;
47433;SDS011;33184;48.774;8.918;2023-02-28T18:58:33;18.27;;;12.83;;
47433;SDS011;33184;48.774;8.918;2023-02-28T19:03:54;20.20;;;11.63;;
47433;SDS011;33184;48.774;8.918;2023-02-28T19:09:16;18.50;;;11.43;;
47433;SDS011;33184;48.774;8.918;2023-02-28T19:14:36;16.30;;;11.87;;
47433;SDS011;33184;48.774;8.918;2023-02-28T19:19:57;21.33;;;13.37;;
47433;SDS011;33184;48.774;8.918;2023-02-28T19:25:18;19.30;;;12.97;;
47433;SDS011;33184;48.774;8.918;2023-02-28T19:30:39;21.33;;;13.37;;
47433;SDS011;33184;48.774;8.918;2023-02-28T19:35:59;21.27;;;13.80;;
47433;SDS011;33184;48.774;8.918;2023-02-28T19:41:20;24.87;;;15.43;;
47433;SDS011;33184;48.774;8.918;2023-02-28T19:46:41;17.43;;;12.07;;
47433;SDS011;33184;48.774;8.918;2023-02-28T19:52:01;15.23;;;10.77;;
47433;SDS011;33184;48.774;8.918;2023-02-28T19:57:23;22.77;;;11.60;;
47433;SDS011;33184;48.774;8.918;2023-02-28T20:02:43;22.03;;;14.57;;
47433;SDS011;33184;48.774;8.918;2023-02-28T20:08:04;21.27;;;13.20;;
47433;SDS011;33184;48.774;8.918;2023-02-28T20:13:25;22.57;;;14.47;;
47433;SDS011;33184;48.774;8.918;2023-02-28T20:18:48;19.03;;;13.43;;
47433;SDS011;33184;48.774;8.918;2023-02-28T20:24:10;20.58;;;11.60;;
47433;SDS011;33184;48.774;8.918;2023-02-28T20:29:32;17.40;;;11.53;;
47433;SDS011;33184;48.774;8.918;2023-02-28T20:34:54;15.90;;;12.17;;
47433;SDS011;33184;48.774;8.918;2023-02-28T20:40:14;18.47;;;11.43;;
47433;SDS011;33184;48.774;8.918;2023-02-28T20:45:35;18.33;;;11.40;;
47433;SDS011;33184;48.774;8.918;2023-02-28T20:50:56;15.87;;;11.73;;
47433;SDS011;33184;48.774;8.918;2023-02-28T20:56:18;23.47;;;13.53;;
47433;SDS011;33184;48.774;8.918;2023-02-28T21:01:40;21.90;;;12.40;;
47433;SDS011;33184;48.774;8.918;2023-02-28T21:07:03;19.13;;;10.90;;
47433;SDS011;33184;48.774;8.918;2023-02-28T21:12:24;17.17;;;11.27;;
47433;SDS011;33184;48.774;8.918;2023-02-28T21:17:44;15.13;;;9.77;;
47433;SDS011;33184;48.774;8.918;2023-02-28T21:23:07;22.03;;;10.63;;
47433;SDS011;33184;48.774;8.918;2023-02-28T21:28:27;16.33;;;10.10;;
47433;SDS011;33184;48.774;8.918;2023-02-28T21:33:48;20.73;;;12.37;;
47433;SDS011;33184;48.774;8.918;2023-02-28T21:39:23;16.87;;;11.37;;
47433;SDS011;33184;48.774;8.918;2023-02-28T21:44:49;17.50;;;11.17;;
47433;SDS011;33184;48.774;8.918;2023-02-28T21:50:10;17.20;;;10.77;;
47433;SDS011;33184;48.774;8.918;2023-02-28T21:55:32;20.03;;;10.73;;
47433;SDS011;33184;48.774;8.918;2023-02-28T22:00:54;16.37;;;10.17;;
47433;SDS011;33184;48.774;8.918;2023-02-28T22:06:18;14.23;;;10.53;;
47433;SDS011;33184;48.774;8.918;2023-02-28T22:11:40;19.77;;;11.80;;
47433;SDS011;33184;48.774;8.918;2023-02-28T22:17:01;14.90;;;10.20;;
47433;SDS011;33184;48.774;8.918;2023-02-28T22:22:21;17.27;;;11.13;;
47433;SDS011;33184;48.774;8.918;2023-02-28T22:27:42;19.60;;;12.33;;
47433;SDS011;33184;48.774;8.918;2023-02-28T22:33:03;17.20;;;10.97;;
47433;SDS011;33184;48.774;8.918;2023-02-28T22:38:23;17.23;;;10.43;;
47433;SDS011;33184;48.774;8.918;2023-02-28T22:43:50;16.10;;;10.87;;
47433;SDS011;33184;48.774;8.918;2023-02-28T22:49:13;18.30;;;10.13;;
47433;SDS011;33184;48.774;8.918;2023-02-28T22:54:33;17.83;;;10.00;;
47433;SDS011;33184;48.774;8.918;2023-02-28T22:59:54;24.20;;;11.17;;
47433;SDS011;33184;48.774;8.918;2023-02-28T23:05:14;20.57;;;12.63;;
47433;SDS011;33184;48.774;8.918;2023-02-28T23:10:39;20.20;;;12.23;;
47433;SDS011;33184;48.774;8.918;2023-02-28T23:16:04;23.27;;;13.77;;
47433;SDS011;33184;48.774;8.918;2023-02-28T23:21:26;22.40;;;13.67;;
47433;SDS011;33184;48.774;8.918;2023-02-28T23:26:48;17.80;;;12.10;;
47433;SDS011;33184;48.774;8.918;2023-02-28T23:32:10;22.03;;;12.00;;
47433;SDS011;33184;48.774;8.918;2023-02-28T23:37:31;23.70;;;14.60;;
47433;SDS011;33184;48.774;8.918;2023-02-28T23:42:51;20.30;;;11.77;;
47433;SDS011;33184;48.774;8.918;2023-02-28T23:48:12;22.57;;;12.57;;
47433;SDS011;33184;48.774;8.918;2023-02-28T23:53:36;19.23;;;10.80;;
47433;SDS011;33184;48.774;8.918;2023-02-28T23:59:00;19.97;;;11.80;;
